Airfield :







YOU CAN JOIN US ON...

 
LOGIN :

Register | Disclaimer

   EN    FR    IT 

 









Legend :    VFR   Marginal VFR   IFR   Intensive IFR   Very Intensive IFR
Visi :
Ceiling :
>= 8 km
>= 3000ft
5 to 8 km
1000 to 3000 ft
1500m to 5 km
500 to 1000 ft
800 to 1500m
200 to 500 ft
< 800m
< 200 ft
Symbols :   Thunderstorms  Fog  Heavy snow  Heavy precipitations  Wind > 20 kt






- Airport Elevation : 792 ft
- IATA code : YSC


CYSC - Sherbrooke

CURRENT METAR :
  • 120510Z AUTO 26025G31KT 9SM FEW044 M07/M15 A3024 RMK SLP257

EXPIRED METARs :
  • 120434Z AUTO 26022G36KT 9SM SCT037 M07/M15 A3022 RMK SLP251
  • 120418Z AUTO 27014G23KT 9SM -SN BKN037 BKN070 M07/M13 A3021 RMK SLP248
  • 120400Z AUTO 27014G23KT 9SM FEW037 BKN070 BKN091 M07/M13 A3020 RMK SLP244
  • 120306Z AUTO 26020G34KT 8SM FEW050 M06/M12 A3015 RMK PRESRR SLP229
  • 120245Z AUTO 26021G29KT 6SM -SN CLR M05/M10 A3013 RMK PRESRR SLP220
  • 120225Z AUTO 27020G34KT 3SM -SN FEW036 M05/M11 A3012 RMK SLP216

Expired Forecast.



MET'MAP, your aeronautical weather chart ! - Copyright ORBIFLY December 2007 - Disclaimer

ORBIFLY MET'MAP TEAM :

Programming & Development : Alexandra Zaïnal
Concept & original design : Baudouin d'Aumeries
Assistance for programming : Marc-Olivier Méhu
Technical & hardware support : Manuel Goepfert

Contact : metmap@orbifly.com




SOURCES & CREDITS :

   NOAA